sensor_id;sensor_type;location;lat;lon;timestamp;pressure;altitude;pressure_sealevel;temperature;humidity
37202;BME280;37799;52.390;6.136;2023-03-23T00:01:04;100192.72;;;11.48;100.00
37202;BME280;37799;52.390;6.136;2023-03-23T00:03:30;100197.66;;;11.32;100.00
37202;BME280;37799;52.390;6.136;2023-03-23T00:05:57;100201.63;;;11.41;100.00
37202;BME280;37799;52.390;6.136;2023-03-23T00:08:29;100192.72;;;11.26;100.00
37202;BME280;37799;52.390;6.136;2023-03-23T00:10:54;100198.50;;;11.33;100.00
37202;BME280;37799;52.390;6.136;2023-03-23T00:13:24;100199.38;;;11.33;100.00
37202;BME280;37799;52.390;6.136;2023-03-23T00:15:49;100196.72;;;11.35;100.00
37202;BME280;37799;52.390;6.136;2023-03-23T00:18:17;100217.06;;;11.44;100.00
37202;BME280;37799;52.390;6.136;2023-03-23T00:20:55;100200.56;;;11.25;100.00
37202;BME280;37799;52.390;6.136;2023-03-23T00:23:23;100186.84;;;11.43;100.00
37202;BME280;37799;52.390;6.136;2023-03-23T00:25:53;100164.84;;;11.31;100.00
37202;BME280;37799;52.390;6.136;2023-03-23T00:28:19;100162.16;;;11.34;100.00
37202;BME280;37799;52.390;6.136;2023-03-23T00:30:54;100141.94;;;11.42;100.00
37202;BME280;37799;52.390;6.136;2023-03-23T00:33:22;100158.13;;;11.49;100.00
37202;BME280;37799;52.390;6.136;2023-03-23T00:35:48;100159.38;;;11.39;100.00
37202;BME280;37799;52.390;6.136;2023-03-23T00:38:14;100177.75;;;11.33;100.00
37202;BME280;37799;52.390;6.136;2023-03-23T00:40:39;100171.00;;;11.29;100.00
37202;BME280;37799;52.390;6.136;2023-03-23T00:43:04;100135.75;;;11.25;100.00
37202;BME280;37799;52.390;6.136;2023-03-23T00:45:30;100126.19;;;11.27;100.00
37202;BME280;37799;52.390;6.136;2023-03-23T00:47:55;100113.16;;;11.28;100.00
37202;BME280;37799;52.390;6.136;2023-03-23T00:50:21;100114.19;;;11.24;100.00
37202;BME280;37799;52.390;6.136;2023-03-23T00:52:47;100124.06;;;11.14;100.00
37202;BME280;37799;52.390;6.136;2023-03-23T00:55:14;100128.19;;;11.20;100.00
37202;BME280;37799;52.390;6.136;2023-03-23T00:57:39;100113.06;;;11.09;100.00
37202;BME280;37799;52.390;6.136;2023-03-23T01:00:05;100110.34;;;11.12;100.00
37202;BME280;37799;52.390;6.136;2023-03-23T01:02:36;100101.81;;;11.31;100.00
37202;BME280;37799;52.390;6.136;2023-03-23T01:05:01;100109.16;;;11.19;100.00
37202;BME280;37799;52.390;6.136;2023-03-23T01:07:28;100124.91;;;11.37;100.00
37202;BME280;37799;52.390;6.136;2023-03-23T01:09:56;100129.31;;;11.35;100.00
37202;BME280;37799;52.390;6.136;2023-03-23T01:12:23;100122.38;;;11.56;100.00
37202;BME280;37799;52.390;6.136;2023-03-23T01:14:50;100114.53;;;11.37;100.00
37202;BME280;37799;52.390;6.136;2023-03-23T01:17:15;100106.75;;;11.37;100.00
37202;BME280;37799;52.390;6.136;2023-03-23T01:19:40;100091.97;;;11.39;100.00
37202;BME280;37799;52.390;6.136;2023-03-23T01:22:07;100087.44;;;11.44;100.00
37202;BME280;37799;52.390;6.136;2023-03-23T01:24:32;100085.19;;;11.36;100.00
37202;BME280;37799;52.390;6.136;2023-03-23T01:26:57;100085.88;;;11.40;100.00
37202;BME280;37799;52.390;6.136;2023-03-23T01:29:26;100089.13;;;11.45;100.00
37202;BME280;37799;52.390;6.136;2023-03-23T01:31:52;100094.44;;;11.42;100.00
37202;BME280;37799;52.390;6.136;2023-03-23T01:34:17;100083.38;;;11.38;100.00
37202;BME280;37799;52.390;6.136;2023-03-23T01:36:42;100081.31;;;11.46;100.00
37202;BME280;37799;52.390;6.136;2023-03-23T01:39:08;100090.03;;;11.23;100.00
37202;BME280;37799;52.390;6.136;2023-03-23T01:41:34;100099.22;;;11.31;100.00
37202;BME280;37799;52.390;6.136;2023-03-23T01:44:59;100080.16;;;11.11;100.00
37202;BME280;37799;52.390;6.136;2023-03-23T01:46:52;100062.75;;;11.35;100.00
37202;BME280;37799;52.390;6.136;2023-03-23T01:49:23;100049.59;;;11.40;100.00
37202;BME280;37799;52.390;6.136;2023-03-23T01:51:54;100066.56;;;11.27;100.00
37202;BME280;37799;52.390;6.136;2023-03-23T01:54:23;100057.50;;;11.37;100.00
37202;BME280;37799;52.390;6.136;2023-03-23T01:57:02;100056.97;;;11.29;100.00
37202;BME280;37799;52.390;6.136;2023-03-23T01:59:30;100074.81;;;11.36;100.00
37202;BME280;37799;52.390;6.136;2023-03-23T02:01:57;100058.50;;;11.34;100.00
37202;BME280;37799;52.390;6.136;2023-03-23T02:04:23;100057.25;;;11.43;100.00
37202;BME280;37799;52.390;6.136;2023-03-23T02:06:50;100065.53;;;11.31;100.00
37202;BME280;37799;52.390;6.136;2023-03-23T02:09:16;100068.66;;;11.39;100.00
37202;BME280;37799;52.390;6.136;2023-03-23T02:11:43;100064.81;;;11.27;100.00
37202;BME280;37799;52.390;6.136;2023-03-23T02:14:09;100049.03;;;11.33;100.00
37202;BME280;37799;52.390;6.136;2023-03-23T02:17:06;100048.28;;;11.30;100.00
37202;BME280;37799;52.390;6.136;2023-03-23T02:25:23;100051.16;;;11.44;100.00
37202;BME280;37799;52.390;6.136;2023-03-23T02:31:05;100042.41;;;11.46;100.00
37202;BME280;37799;52.390;6.136;2023-03-23T02:33:43;100039.38;;;11.37;100.00
37202;BME280;37799;52.390;6.136;2023-03-23T02:36:20;100046.13;;;11.19;100.00
37202;BME280;37799;52.390;6.136;2023-03-23T02:39:20;100039.81;;;11.26;100.00
37202;BME280;37799;52.390;6.136;2023-03-23T02:42:07;100040.38;;;11.33;100.00
37202;BME280;37799;52.390;6.136;2023-03-23T02:44:35;100043.56;;;11.39;100.00
37202;BME280;37799;52.390;6.136;2023-03-23T02:47:04;100041.25;;;11.53;100.00
37202;BME280;37799;52.390;6.136;2023-03-23T02:49:32;100042.34;;;11.28;100.00
37202;BME280;37799;52.390;6.136;2023-03-23T02:52:02;100039.81;;;11.26;100.00
37202;BME280;37799;52.390;6.136;2023-03-23T02:54:29;100034.41;;;11.31;100.00
37202;BME280;37799;52.390;6.136;2023-03-23T02:56:56;100033.34;;;11.36;100.00
37202;BME280;37799;52.390;6.136;2023-03-23T02:59:22;100037.25;;;11.46;100.00
37202;BME280;37799;52.390;6.136;2023-03-23T03:01:51;100031.16;;;11.47;100.00
37202;BME280;37799;52.390;6.136;2023-03-23T03:04:20;100028.88;;;11.40;100.00
37202;BME280;37799;52.390;6.136;2023-03-23T03:13:08;100033.41;;;11.35;100.00
37202;BME280;37799;52.390;6.136;2023-03-23T03:15:42;100026.13;;;11.43;100.00
37202;BME280;37799;52.390;6.136;2023-03-23T03:18:16;100033.41;;;11.55;100.00
37202;BME280;37799;52.390;6.136;2023-03-23T03:20:49;100031.56;;;11.57;100.00
37202;BME280;37799;52.390;6.136;2023-03-23T03:23:16;100026.66;;;11.51;100.00
37202;BME280;37799;52.390;6.136;2023-03-23T03:25:46;100024.22;;;11.48;100.00
37202;BME280;37799;52.390;6.136;2023-03-23T03:28:19;100019.53;;;11.56;100.00
37202;BME280;37799;52.390;6.136;2023-03-23T03:30:51;100023.03;;;11.55;100.00
37202;BME280;37799;52.390;6.136;2023-03-23T03:33:17;100024.84;;;11.53;100.00
37202;BME280;37799;52.390;6.136;2023-03-23T03:35:45;100032.38;;;11.59;100.00
37202;BME280;37799;52.390;6.136;2023-03-23T03:38:11;100028.28;;;11.53;100.00
37202;BME280;37799;52.390;6.136;2023-03-23T03:40:37;100020.88;;;11.65;100.00
37202;BME280;37799;52.390;6.136;2023-03-23T03:43:02;100031.03;;;11.69;100.00
37202;BME280;37799;52.390;6.136;2023-03-23T03:45:28;100020.97;;;11.63;100.00
37202;BME280;37799;52.390;6.136;2023-03-23T03:47:53;100004.41;;;11.66;100.00
37202;BME280;37799;52.390;6.136;2023-03-23T03:50:19;100008.06;;;11.62;100.00
37202;BME280;37799;52.390;6.136;2023-03-23T03:52:44;100004.09;;;11.73;100.00
37202;BME280;37799;52.390;6.136;2023-03-23T03:55:10;100001.75;;;11.67;100.00
37202;BME280;37799;52.390;6.136;2023-03-23T03:57:36;100008.38;;;11.74;100.00
37202;BME280;37799;52.390;6.136;2023-03-23T04:00:03;100005.63;;;11.77;100.00
37202;BME280;37799;52.390;6.136;2023-03-23T04:02:39;100004.72;;;11.78;100.00
37202;BME280;37799;52.390;6.136;2023-03-23T04:05:05;100003.03;;;11.77;100.00
37202;BME280;37799;52.390;6.136;2023-03-23T04:07:31;100000.50;;;11.76;100.00
37202;BME280;37799;52.390;6.136;2023-03-23T04:09:56;100007.84;;;11.87;100.00
37202;BME280;37799;52.390;6.136;2023-03-23T04:12:21;99997.84;;;11.77;100.00
37202;BME280;37799;52.390;6.136;2023-03-23T04:14:47;99998.41;;;11.86;100.00
37202;BME280;37799;52.390;6.136;2023-03-23T04:17:12;99996.66;;;11.86;100.00
37202;BME280;37799;52.390;6.136;2023-03-23T04:19:39;99991.06;;;11.75;100.00
37202;BME280;37799;52.390;6.136;2023-03-23T04:22:05;100002.66;;;11.87;100.00
37202;BME280;37799;52.390;6.136;2023-03-23T04:24:30;99994.75;;;11.90;100.00
37202;BME280;37799;52.390;6.136;2023-03-23T04:26:58;99987.47;;;11.77;100.00
37202;BME280;37799;52.390;6.136;2023-03-23T04:29:23;99995.44;;;11.93;100.00
37202;BME280;37799;52.390;6.136;2023-03-23T04:31:48;99988.31;;;11.78;100.00
37202;BME280;37799;52.390;6.136;2023-03-23T04:34:16;99981.91;;;11.87;100.00
37202;BME280;37799;52.390;6.136;2023-03-23T04:36:41;99990.88;;;11.79;100.00
37202;BME280;37799;52.390;6.136;2023-03-23T04:39:08;99986.78;;;11.74;100.00
37202;BME280;37799;52.390;6.136;2023-03-23T04:41:38;99983.31;;;11.94;100.00
37202;BME280;37799;52.390;6.136;2023-03-23T04:44:05;99981.06;;;11.86;100.00
37202;BME280;37799;52.390;6.136;2023-03-23T04:46:30;99972.25;;;11.90;100.00
37202;BME280;37799;52.390;6.136;2023-03-23T04:48:56;99985.50;;;12.03;100.00
37202;BME280;37799;52.390;6.136;2023-03-23T04:51:24;99986.97;;;11.90;100.00
37202;BME280;37799;52.390;6.136;2023-03-23T04:53:51;99993.13;;;12.06;100.00
37202;BME280;37799;52.390;6.136;2023-03-23T04:56:16;99991.75;;;11.99;100.00
37202;BME280;37799;52.390;6.136;2023-03-23T04:58:42;99992.91;;;11.92;100.00
37202;BME280;37799;52.390;6.136;2023-03-23T05:01:08;99996.50;;;12.08;100.00
37202;BME280;37799;52.390;6.136;2023-03-23T05:03:34;99993.44;;;12.00;100.00
37202;BME280;37799;52.390;6.136;2023-03-23T05:06:02;100002.91;;;12.01;100.00
37202;BME280;37799;52.390;6.136;2023-03-23T05:08:27;100001.75;;;11.88;100.00
37202;BME280;37799;52.390;6.136;2023-03-23T05:10:55;100015.50;;;11.90;100.00
37202;BME280;37799;52.390;6.136;2023-03-23T05:13:21;100002.97;;;11.99;100.00
37202;BME280;37799;52.390;6.136;2023-03-23T05:15:47;100004.22;;;11.91;100.00
37202;BME280;37799;52.390;6.136;2023-03-23T05:18:13;99998.09;;;11.92;100.00
37202;BME280;37799;52.390;6.136;2023-03-23T05:20:38;100003.00;;;11.98;100.00
37202;BME280;37799;52.390;6.136;2023-03-23T05:23:04;99988.78;;;12.06;100.00
37202;BME280;37799;52.390;6.136;2023-03-23T05:25:30;100005.28;;;12.05;100.00
37202;BME280;37799;52.390;6.136;2023-03-23T05:27:57;100017.19;;;12.09;100.00
37202;BME280;37799;52.390;6.136;2023-03-23T05:30:24;100030.13;;;12.11;100.00
37202;BME280;37799;52.390;6.136;2023-03-23T05:32:49;100047.69;;;12.23;100.00
37202;BME280;37799;52.390;6.136;2023-03-23T05:35:16;100041.97;;;12.17;100.00
37202;BME280;37799;52.390;6.136;2023-03-23T05:37:42;100033.84;;;12.24;100.00
37202;BME280;37799;52.390;6.136;2023-03-23T05:40:09;100040.16;;;12.37;100.00
37202;BME280;37799;52.390;6.136;2023-03-23T05:42:37;100041.97;;;12.35;100.00
37202;BME280;37799;52.390;6.136;2023-03-23T05:45:04;100039.88;;;12.25;100.00
37202;BME280;37799;52.390;6.136;2023-03-23T05:47:30;100052.00;;;12.24;100.00
37202;BME280;37799;52.390;6.136;2023-03-23T05:49:55;100054.16;;;12.33;100.00
37202;BME280;37799;52.390;6.136;2023-03-23T05:52:21;100047.16;;;12.17;100.00
37202;BME280;37799;52.390;6.136;2023-03-23T05:54:46;100060.22;;;12.15;100.00
37202;BME280;37799;52.390;6.136;2023-03-23T05:57:12;100053.47;;;12.11;100.00
37202;BME280;37799;52.390;6.136;2023-03-23T05:59:37;100061.66;;;12.02;100.00
37202;BME280;37799;52.390;6.136;2023-03-23T06:02:03;100058.38;;;11.98;100.00
37202;BME280;37799;52.390;6.136;2023-03-23T06:04:29;100061.13;;;11.94;100.00
37202;BME280;37799;52.390;6.136;2023-03-23T06:06:54;100058.38;;;11.98;100.00
37202;BME280;37799;52.390;6.136;2023-03-23T06:09:19;100072.72;;;11.87;100.00
37202;BME280;37799;52.390;6.136;2023-03-23T06:11:46;100089.53;;;11.76;100.00
37202;BME280;37799;52.390;6.136;2023-03-23T06:14:12;100086.84;;;11.59;100.00
37202;BME280;37799;52.390;6.136;2023-03-23T06:16:38;100090.09;;;11.42;100.00
37202;BME280;37799;52.390;6.136;2023-03-23T06:19:03;100104.41;;;11.31;100.00
37202;BME280;37799;52.390;6.136;2023-03-23T06:21:30;100103.97;;;11.19;100.00
37202;BME280;37799;52.390;6.136;2023-03-23T06:23:55;100094.38;;;11.01;100.00
37202;BME280;37799;52.390;6.136;2023-03-23T06:26:29;100104.13;;;10.95;100.00
37202;BME280;37799;52.390;6.136;2023-03-23T06:28:56;100105.53;;;10.81;100.00
37202;BME280;37799;52.390;6.136;2023-03-23T06:31:22;100109.78;;;10.82;100.00
37202;BME280;37799;52.390;6.136;2023-03-23T06:33:48;100118.16;;;10.89;100.00
37202;BME280;37799;52.390;6.136;2023-03-23T06:36:13;100128.50;;;10.89;100.00
37202;BME280;37799;52.390;6.136;2023-03-23T06:38:38;100123.28;;;10.90;100.00
37202;BME280;37799;52.390;6.136;2023-03-23T06:41:04;100137.47;;;10.80;100.00
37202;BME280;37799;52.390;6.136;2023-03-23T06:43:30;100130.25;;;10.88;100.00
37202;BME280;37799;52.390;6.136;2023-03-23T06:45:58;100132.91;;;10.87;100.00
37202;BME280;37799;52.390;6.136;2023-03-23T06:48:23;100122.91;;;10.78;100.00
37202;BME280;37799;52.390;6.136;2023-03-23T06:50:49;100129.59;;;10.83;100.00
37202;BME280;37799;52.390;6.136;2023-03-23T06:53:14;100126.78;;;10.89;100.00
37202;BME280;37799;52.390;6.136;2023-03-23T06:55:43;100130.44;;;10.84;100.00
37202;BME280;37799;52.390;6.136;2023-03-23T06:58:09;100143.28;;;10.87;100.00
37202;BME280;37799;52.390;6.136;2023-03-23T07:00:35;100149.25;;;10.89;100.00
37202;BME280;37799;52.390;6.136;2023-03-23T07:03:00;100154.53;;;10.86;100.00
37202;BME280;37799;52.390;6.136;2023-03-23T07:05:26;100137.38;;;10.83;100.00
37202;BME280;37799;52.390;6.136;2023-03-23T07:07:51;100143.06;;;10.70;100.00
37202;BME280;37799;52.390;6.136;2023-03-23T07:10:17;100144.41;;;10.80;100.00
37202;BME280;37799;52.390;6.136;2023-03-23T07:12:43;100140.13;;;10.79;100.00
37202;BME280;37799;52.390;6.136;2023-03-23T07:15:09;100140.38;;;10.73;100.00
37202;BME280;37799;52.390;6.136;2023-03-23T07:17:36;100149.75;;;10.75;100.00
37202;BME280;37799;52.390;6.136;2023-03-23T07:20:02;100140.50;;;10.70;100.00
37202;BME280;37799;52.390;6.136;2023-03-23T07:22:28;100149.03;;;10.72;100.00
37202;BME280;37799;52.390;6.136;2023-03-23T07:24:53;100148.72;;;10.57;100.00
37202;BME280;37799;52.390;6.136;2023-03-23T07:27:19;100149.25;;;10.66;100.00
37202;BME280;37799;52.390;6.136;2023-03-23T07:29:45;100161.09;;;10.73;100.00
37202;BME280;37799;52.390;6.136;2023-03-23T07:32:11;100157.72;;;10.71;100.00
37202;BME280;37799;52.390;6.136;2023-03-23T07:34:37;100152.53;;;10.71;100.00
37202;BME280;37799;52.390;6.136;2023-03-23T07:37:03;100161.75;;;10.78;100.00
37202;BME280;37799;52.390;6.136;2023-03-23T07:39:29;100162.31;;;10.86;100.00
37202;BME280;37799;52.390;6.136;2023-03-23T07:41:54;100162.06;;;10.92;100.00
37202;BME280;37799;52.390;6.136;2023-03-23T07:44:20;100168.59;;;11.02;100.00
37202;BME280;37799;52.390;6.136;2023-03-23T07:46:45;100162.81;;;10.96;100.00
37202;BME280;37799;52.390;6.136;2023-03-23T07:49:11;100182.50;;;11.00;100.00
37202;BME280;37799;52.390;6.136;2023-03-23T07:51:37;100182.53;;;11.21;100.00
37202;BME280;37799;52.390;6.136;2023-03-23T07:54:04;100176.88;;;11.34;100.00
37202;BME280;37799;52.390;6.136;2023-03-23T07:56:31;100181.03;;;11.38;100.00
37202;BME280;37799;52.390;6.136;2023-03-23T07:58:57;100177.16;;;11.48;100.00
37202;BME280;37799;52.390;6.136;2023-03-23T08:01:22;100190.19;;;11.46;100.00
37202;BME280;37799;52.390;6.136;2023-03-23T08:03:49;100190.91;;;11.50;100.00
37202;BME280;37799;52.390;6.136;2023-03-23T08:06:15;100190.84;;;11.51;100.00
37202;BME280;37799;52.390;6.136;2023-03-23T08:08:40;100193.44;;;11.51;100.00
37202;BME280;37799;52.390;6.136;2023-03-23T08:11:06;100188.44;;;11.47;100.00
37202;BME280;37799;52.390;6.136;2023-03-23T08:13:32;100197.06;;;11.47;100.00
37202;BME280;37799;52.390;6.136;2023-03-23T08:16:00;100197.53;;;11.57;100.00
37202;BME280;37799;52.390;6.136;2023-03-23T08:18:29;100197.22;;;11.65;100.00
37202;BME280;37799;52.390;6.136;2023-03-23T08:20:55;100192.94;;;11.64;100.00
37202;BME280;37799;52.390;6.136;2023-03-23T08:23:21;100193.78;;;11.86;100.00
37202;BME280;37799;52.390;6.136;2023-03-23T08:25:47;100204.63;;;11.96;100.00
37202;BME280;37799;52.390;6.136;2023-03-23T08:28:13;100213.06;;;12.01;100.00
37202;BME280;37799;52.390;6.136;2023-03-23T08:30:41;100220.66;;;12.05;100.00
37202;BME280;37799;52.390;6.136;2023-03-23T08:33:08;100204.88;;;11.90;100.00
37202;BME280;37799;52.390;6.136;2023-03-23T08:35:35;100212.59;;;11.91;100.00
37202;BME280;37799;52.390;6.136;2023-03-23T08:38:01;100205.94;;;11.86;100.00
37202;BME280;37799;52.390;6.136;2023-03-23T08:40:26;100216.94;;;11.91;100.00
37202;BME280;37799;52.390;6.136;2023-03-23T08:42:53;100220.59;;;11.87;100.00
37202;BME280;37799;52.390;6.136;2023-03-23T08:45:22;100226.78;;;11.82;100.00
37202;BME280;37799;52.390;6.136;2023-03-23T08:47:48;100228.06;;;11.72;100.00
37202;BME280;37799;52.390;6.136;2023-03-23T08:50:23;100212.22;;;11.78;100.00
37202;BME280;37799;52.390;6.136;2023-03-23T08:52:49;100227.38;;;11.89;100.00
37202;BME280;37799;52.390;6.136;2023-03-23T08:55:16;100222.59;;;12.00;100.00
37202;BME280;37799;52.390;6.136;2023-03-23T08:57:43;100227.38;;;12.09;100.00
37202;BME280;37799;52.390;6.136;2023-03-23T09:00:11;100216.91;;;12.13;100.00
37202;BME280;37799;52.390;6.136;2023-03-23T09:02:44;100220.22;;;12.16;100.00
37202;BME280;37799;52.390;6.136;2023-03-23T09:05:10;100223.31;;;12.04;100.00
37202;BME280;37799;52.390;6.136;2023-03-23T09:07:39;100222.59;;;12.00;100.00
37202;BME280;37799;52.390;6.136;2023-03-23T09:10:06;100216.25;;;12.28;100.00
37202;BME280;37799;52.390;6.136;2023-03-23T09:12:32;100231.94;;;12.45;100.00
37202;BME280;37799;52.390;6.136;2023-03-23T09:14:57;100244.34;;;12.38;100.00
37202;BME280;37799;52.390;6.136;2023-03-23T09:17:22;100234.06;;;12.76;100.00
37202;BME280;37799;52.390;6.136;2023-03-23T09:19:48;100254.09;;;12.73;100.00
37202;BME280;37799;52.390;6.136;2023-03-23T09:22:13;100249.34;;;12.82;100.00
37202;BME280;37799;52.390;6.136;2023-03-23T09:24:40;100240.03;;;12.78;100.00
37202;BME280;37799;52.390;6.136;2023-03-23T09:27:06;100241.94;;;12.93;100.00
37202;BME280;37799;52.390;6.136;2023-03-23T09:29:31;100241.28;;;12.88;100.00
37202;BME280;37799;52.390;6.136;2023-03-23T09:31:56;100252.25;;;12.76;100.00
37202;BME280;37799;52.390;6.136;2023-03-23T09:34:23;100256.25;;;12.83;100.00
37202;BME280;37799;52.390;6.136;2023-03-23T09:36:48;100245.09;;;12.61;100.00
37202;BME280;37799;52.390;6.136;2023-03-23T09:39:14;100253.25;;;12.72;100.00
37202;BME280;37799;52.390;6.136;2023-03-23T09:44:45;100255.72;;;13.33;100.00
37202;BME280;37799;52.390;6.136;2023-03-23T09:50:31;100255.03;;;14.02;100.00
37202;BME280;37799;52.390;6.136;2023-03-23T09:55:26;100260.16;;;14.38;100.00
37202;BME280;37799;52.390;6.136;2023-03-23T09:58:05;100256.81;;;14.53;100.00
37202;BME280;37799;52.390;6.136;2023-03-23T10:00:37;100269.78;;;14.70;100.00
37202;BME280;37799;52.390;6.136;2023-03-23T10:03:13;100270.63;;;15.04;100.00
37202;BME280;37799;52.390;6.136;2023-03-23T10:05:45;100282.75;;;15.05;100.00
37202;BME280;37799;52.390;6.136;2023-03-23T10:08:20;100273.88;;;15.25;100.00
37202;BME280;37799;52.390;6.136;2023-03-23T10:13:47;100279.03;;;14.60;100.00
37202;BME280;37799;52.390;6.136;2023-03-23T10:16:20;100281.97;;;14.87;100.00
37202;BME280;37799;52.390;6.136;2023-03-23T10:18:52;100274.84;;;15.07;100.00
37202;BME280;37799;52.390;6.136;2023-03-23T10:21:23;100281.16;;;15.34;100.00
37202;BME280;37799;52.390;6.136;2023-03-23T10:23:59;100287.59;;;15.91;100.00
37202;BME280;37799;52.390;6.136;2023-03-23T10:29:23;100291.28;;;16.03;100.00
37202;BME280;37799;52.390;6.136;2023-03-23T10:32:11;100292.31;;;16.45;100.00
37202;BME280;37799;52.390;6.136;2023-03-23T10:34:45;100286.31;;;16.73;100.00
37202;BME280;37799;52.390;6.136;2023-03-23T10:37:18;100304.06;;;16.68;100.00
37202;BME280;37799;52.390;6.136;2023-03-23T10:39:51;100296.84;;;16.27;100.00
37202;BME280;37799;52.390;6.136;2023-03-23T10:42:23;100303.59;;;15.70;100.00
37202;BME280;37799;52.390;6.136;2023-03-23T10:44:50;100288.31;;;14.82;100.00
37202;BME280;37799;52.390;6.136;2023-03-23T10:47:15;100292.34;;;14.71;100.00
37202;BME280;37799;52.390;6.136;2023-03-23T10:49:46;100291.13;;;14.61;100.00
37202;BME280;37799;52.390;6.136;2023-03-23T10:52:45;100292.72;;;14.97;100.00
37202;BME280;37799;52.390;6.136;2023-03-23T10:55:14;100290.38;;;15.73;100.00
37202;BME280;37799;52.390;6.136;2023-03-23T10:57:43;100316.84;;;16.28;100.00
37202;BME280;37799;52.390;6.136;2023-03-23T11:00:23;100311.63;;;16.42;100.00
37202;BME280;37799;52.390;6.136;2023-03-23T11:03:02;100310.03;;;16.10;100.00
37202;BME280;37799;52.390;6.136;2023-03-23T11:05:43;100315.16;;;15.66;100.00
37202;BME280;37799;52.390;6.136;2023-03-23T11:08:12;100313.94;;;15.07;100.00
37202;BME280;37799;52.390;6.136;2023-03-23T11:10:41;100311.47;;;14.88;100.00
37202;BME280;37799;52.390;6.136;2023-03-23T11:13:15;100306.88;;;15.09;100.00
37202;BME280;37799;52.390;6.136;2023-03-23T11:15:43;100310.88;;;15.47;100.00
37202;BME280;37799;52.390;6.136;2023-03-23T11:18:18;100318.75;;;15.79;100.00
37202;BME280;37799;52.390;6.136;2023-03-23T11:20:45;100315.91;;;16.13;100.00
37202;BME280;37799;52.390;6.136;2023-03-23T11:23:20;100316.09;;;16.40;100.00
37202;BME280;37799;52.390;6.136;2023-03-23T11:25:55;100318.31;;;16.32;100.00
37202;BME280;37799;52.390;6.136;2023-03-23T11:28:26;100327.50;;;15.62;100.00
37202;BME280;37799;52.390;6.136;2023-03-23T11:30:54;100323.47;;;15.08;100.00
37202;BME280;37799;52.390;6.136;2023-03-23T11:33:20;100324.53;;;15.37;100.00
37202;BME280;37799;52.390;6.136;2023-03-23T11:35:45;100322.28;;;15.62;100.00
37202;BME280;37799;52.390;6.136;2023-03-23T11:38:18;100319.53;;;15.65;100.00
37202;BME280;37799;52.390;6.136;2023-03-23T11:40:48;100330.19;;;15.60;100.00
37202;BME280;37799;52.390;6.136;2023-03-23T11:43:18;100338.44;;;15.84;100.00
37202;BME280;37799;52.390;6.136;2023-03-23T11:45:54;100329.53;;;16.04;100.00
37202;BME280;37799;52.390;6.136;2023-03-23T11:48:43;100340.31;;;15.67;100.00
37202;BME280;37799;52.390;6.136;2023-03-23T11:51:21;100333.34;;;16.13;100.00
37202;BME280;37799;52.390;6.136;2023-03-23T11:53:50;100336.41;;;16.95;100.00
37202;BME280;37799;52.390;6.136;2023-03-23T11:58:46;100349.63;;;17.63;100.00
37202;BME280;37799;52.390;6.136;2023-03-23T12:06:47;100340.47;;;17.56;96.08
37202;BME280;37799;52.390;6.136;2023-03-23T12:09:25;100343.84;;;17.58;94.86
37202;BME280;37799;52.390;6.136;2023-03-23T12:12:23;100347.81;;;17.23;95.16
37202;BME280;37799;52.390;6.136;2023-03-23T12:17:43;100333.72;;;16.67;96.50
37202;BME280;37799;52.390;6.136;2023-03-23T12:31:25;100315.44;;;16.67;100.00
37202;BME280;37799;52.390;6.136;2023-03-23T12:34:01;100319.38;;;16.88;100.00
37202;BME280;37799;52.390;6.136;2023-03-23T12:42:21;100316.16;;;16.55;100.00
37202;BME280;37799;52.390;6.136;2023-03-23T12:44:54;100327.72;;;16.20;100.00
37202;BME280;37799;52.390;6.136;2023-03-23T12:50:01;100336.53;;;15.72;100.00
37202;BME280;37799;52.390;6.136;2023-03-23T12:52:35;100343.28;;;15.27;100.00
37202;BME280;37799;52.390;6.136;2023-03-23T12:55:15;100326.66;;;14.80;100.00
37202;BME280;37799;52.390;6.136;2023-03-23T12:57:51;100320.38;;;14.66;100.00
37202;BME280;37799;52.390;6.136;2023-03-23T13:00:25;100322.50;;;14.93;100.00
37202;BME280;37799;52.390;6.136;2023-03-23T13:08:06;100294.53;;;15.12;100.00
37202;BME280;37799;52.390;6.136;2023-03-23T13:10:40;100308.44;;;15.44;100.00
37202;BME280;37799;52.390;6.136;2023-03-23T13:13:14;100313.38;;;15.66;100.00
37202;BME280;37799;52.390;6.136;2023-03-23T13:15:55;100302.94;;;15.66;100.00
37202;BME280;37799;52.390;6.136;2023-03-23T13:18:46;100292.81;;;15.60;100.00
37202;BME280;37799;52.390;6.136;2023-03-23T13:21:38;100292.97;;;15.73;100.00
37202;BME280;37799;52.390;6.136;2023-03-23T13:24:14;100295.81;;;15.21;100.00
37202;BME280;37799;52.390;6.136;2023-03-23T13:26:42;100300.88;;;15.40;100.00
37202;BME280;37799;52.390;6.136;2023-03-23T13:29:17;100308.63;;;15.25;100.00
37202;BME280;37799;52.390;6.136;2023-03-23T13:31:45;100317.22;;;15.10;100.00
37202;BME280;37799;52.390;6.136;2023-03-23T13:34:24;100322.00;;;14.86;100.00
37202;BME280;37799;52.390;6.136;2023-03-23T13:37:02;100334.22;;;14.84;100.00
37202;BME280;37799;52.390;6.136;2023-03-23T13:39:36;100327.78;;;14.91;100.00
37202;BME280;37799;52.390;6.136;2023-03-23T13:44:44;100321.75;;;15.55;100.00
37202;BME280;37799;52.390;6.136;2023-03-23T13:49:59;100320.53;;;16.24;100.00
37202;BME280;37799;52.390;6.136;2023-03-23T13:57:50;100322.75;;;16.16;100.00
37202;BME280;37799;52.390;6.136;2023-03-23T14:00:33;100330.66;;;16.30;100.00
37202;BME280;37799;52.390;6.136;2023-03-23T14:03:17;100332.66;;;16.25;100.00
37202;BME280;37799;52.390;6.136;2023-03-23T14:05:44;100328.13;;;16.13;100.00